createdAt,value
2023-09-18T00:03:46.729Z,19.86
2023-09-18T00:07:58.589Z,19.85
2023-09-18T00:12:11.005Z,19.77
2023-09-18T00:16:22.871Z,19.85
2023-09-18T00:20:34.759Z,19.81
2023-09-18T00:24:49.139Z,19.81
2023-09-18T00:29:00.944Z,19.75
2023-09-18T00:33:12.764Z,19.79
2023-09-18T00:37:24.713Z,19.71
2023-09-18T00:41:37.494Z,19.78
2023-09-18T00:45:50.233Z,19.74
2023-09-18T00:50:02.809Z,19.78
2023-09-18T00:54:17.878Z,19.76
2023-09-18T00:58:30.346Z,19.73
2023-09-18T01:02:43.031Z,19.77
2023-09-18T01:06:57.553Z,19.80
2023-09-18T01:11:42.057Z,19.82
2023-09-18T01:15:59.062Z,19.78
2023-09-18T01:20:12.725Z,19.72
2023-09-18T01:24:24.697Z,19.72
2023-09-18T01:28:36.497Z,19.78
2023-09-18T01:32:49.477Z,19.75
2023-09-18T01:37:01.908Z,19.74
2023-09-18T01:41:13.975Z,19.72
2023-09-18T01:45:25.887Z,19.81
2023-09-18T01:49:39.138Z,19.75
2023-09-18T01:53:54.382Z,19.80
2023-09-18T01:58:06.189Z,19.80
2023-09-18T02:02:25.686Z,19.84
2023-09-18T02:06:48.279Z,19.78
2023-09-18T02:11:00.287Z,19.78
2023-09-18T02:15:12.298Z,19.81
2023-09-18T02:19:24.087Z,19.83
2023-09-18T02:23:35.906Z,19.84
2023-09-18T02:27:47.826Z,19.80
2023-09-18T02:31:59.672Z,19.85
2023-09-18T02:36:11.592Z,19.87
2023-09-18T02:40:23.521Z,19.86
2023-09-18T02:44:35.357Z,19.89
2023-09-18T02:48:47.748Z,19.87
2023-09-18T02:52:59.754Z,19.95
2023-09-18T02:57:12.609Z,19.97
2023-09-18T03:01:24.411Z,19.91
2023-09-18T03:05:36.336Z,19.92
2023-09-18T03:09:48.437Z,20.01
2023-09-18T03:14:00.641Z,19.95
2023-09-18T03:18:12.501Z,19.87
2023-09-18T03:22:25.035Z,19.95
2023-09-18T03:26:38.575Z,19.93
2023-09-18T03:30:51.229Z,19.98
2023-09-18T03:35:06.243Z,20.00
2023-09-18T03:39:18.108Z,19.99
2023-09-18T03:43:30.168Z,19.93
2023-09-18T03:47:43.351Z,20.05
2023-09-18T03:51:56.098Z,20.03
2023-09-18T03:56:07.979Z,20.06
2023-09-18T04:00:19.872Z,20.05
2023-09-18T04:04:31.660Z,20.04
2023-09-18T04:08:43.511Z,19.99
2023-09-18T04:12:55.266Z,20.05
2023-09-18T04:17:07.059Z,20.01
2023-09-18T04:21:18.926Z,19.97
2023-09-18T04:25:32.369Z,19.94
2023-09-18T04:29:44.181Z,19.97
2023-09-18T04:33:57.315Z,19.94
2023-09-18T04:38:12.199Z,19.88
2023-09-18T04:42:24.335Z,19.82
2023-09-18T04:46:36.895Z,19.85
2023-09-18T04:50:49.782Z,19.74
2023-09-18T04:55:01.790Z,19.85
2023-09-18T04:59:13.666Z,19.86
2023-09-18T05:03:28.149Z,19.92
2023-09-18T05:07:40.320Z,19.91
2023-09-18T05:11:52.506Z,19.89
2023-09-18T05:16:04.838Z,19.94
2023-09-18T05:20:17.945Z,19.93
2023-09-18T05:24:30.571Z,20.02
2023-09-18T05:28:42.317Z,20.01
2023-09-18T05:32:54.165Z,19.96
2023-09-18T05:37:06.041Z,19.98
2023-09-18T05:41:17.885Z,19.97
2023-09-18T05:45:30.293Z,20.00
2023-09-18T05:49:42.052Z,20.01
2023-09-18T05:53:54.146Z,19.98
2023-09-18T05:58:08.094Z,19.98
2023-09-18T06:02:22.043Z,19.94
2023-09-18T06:06:33.902Z,20.05
2023-09-18T06:10:46.521Z,20.01
2023-09-18T06:14:58.278Z,20.08
2023-09-18T06:19:10.058Z,20.08
2023-09-18T06:23:21.803Z,20.07
2023-09-18T06:27:37.832Z,20.16
2023-09-18T06:31:51.077Z,20.35
2023-09-18T06:36:03.279Z,20.35
2023-09-18T06:40:15.192Z,20.40
2023-09-18T06:44:27.099Z,20.45
2023-09-18T06:48:38.933Z,20.47
2023-09-18T06:52:50.963Z,20.42
2023-09-18T06:57:02.810Z,20.44
2023-09-18T07:01:16.396Z,20.50
2023-09-18T07:05:28.169Z,20.54
2023-09-18T07:09:51.051Z,20.47
2023-09-18T07:14:13.193Z,20.70
2023-09-18T07:18:25.065Z,20.72
2023-09-18T07:22:36.939Z,20.76
2023-09-18T07:26:49.550Z,20.79
2023-09-18T07:31:06.705Z,20.88
2023-09-18T07:35:18.511Z,20.98
2023-09-18T07:39:31.048Z,20.99
2023-09-18T07:43:43.029Z,21.03
2023-09-18T07:47:54.879Z,20.98
2023-09-18T07:52:06.873Z,21.01
2023-09-18T07:56:20.205Z,21.03
2023-09-18T08:00:34.334Z,21.03
2023-09-18T08:04:46.094Z,21.00
2023-09-18T08:08:57.839Z,20.95
2023-09-18T08:13:10.211Z,21.05
2023-09-18T08:17:22.057Z,21.14
2023-09-18T08:21:34.224Z,21.23
2023-09-18T08:25:46.005Z,21.22
2023-09-18T08:29:57.776Z,21.36
2023-09-18T08:34:09.559Z,21.50
2023-09-18T08:38:21.356Z,21.65
2023-09-18T08:42:34.581Z,21.86
2023-09-18T08:50:58.594Z,23.41
2023-09-18T08:55:11.055Z,23.31
2023-09-18T08:59:23.464Z,23.24
2023-09-18T09:03:35.623Z,23.01
2023-09-18T09:07:47.616Z,23.03
2023-09-18T09:11:59.458Z,22.96
2023-09-18T09:16:13.232Z,22.96
2023-09-18T09:20:25.198Z,23.14
2023-09-18T09:24:42.648Z,23.42
2023-09-18T09:28:54.779Z,23.78
2023-09-18T09:33:09.361Z,24.05
2023-09-18T09:37:32.218Z,25.47
2023-09-18T09:41:47.653Z,26.88
2023-09-18T09:46:03.441Z,28.34
2023-09-18T09:50:19.749Z,29.28
2023-09-18T09:54:41.964Z,29.89
2023-09-18T09:59:09.079Z,30.21
2023-09-18T10:03:24.783Z,30.58
2023-09-18T10:07:38.687Z,30.85
2023-09-18T10:11:53.957Z,31.01
2023-09-18T10:16:08.163Z,30.36
2023-09-18T10:20:23.297Z,29.27
2023-09-18T10:24:38.138Z,28.10
2023-09-18T10:28:54.300Z,27.14
2023-09-18T10:33:08.810Z,26.64
2023-09-18T10:37:21.701Z,26.76
2023-09-18T10:41:33.485Z,26.87
2023-09-18T10:45:45.845Z,26.64
2023-09-18T10:49:57.624Z,26.08
2023-09-18T10:54:16.299Z,25.69
2023-09-18T10:58:28.339Z,25.47
2023-09-18T11:02:41.916Z,25.33
2023-09-18T11:06:56.800Z,25.49
2023-09-18T11:11:15.750Z,25.69
2023-09-18T11:15:33.589Z,25.84
2023-09-18T11:19:46.030Z,25.83
2023-09-18T11:24:02.131Z,25.74
2023-09-18T11:28:18.682Z,25.49
2023-09-18T11:32:41.318Z,25.44
2023-09-18T11:36:53.878Z,25.67
2023-09-18T11:41:26.576Z,25.79
2023-09-18T11:45:39.888Z,25.73
2023-09-18T11:49:56.196Z,25.78
2023-09-18T11:54:09.468Z,26.09
2023-09-18T11:58:24.373Z,26.17
2023-09-18T12:02:37.498Z,26.48
2023-09-18T12:06:49.570Z,26.73
2023-09-18T12:11:06.576Z,26.56
2023-09-18T12:15:20.661Z,26.50
2023-09-18T12:19:32.829Z,26.57
2023-09-18T12:23:46.913Z,26.94
2023-09-18T12:28:01.320Z,27.15
2023-09-18T12:32:14.530Z,26.89
2023-09-18T12:36:26.437Z,26.99
2023-09-18T12:40:38.116Z,26.77
2023-09-18T12:44:51.903Z,26.46
2023-09-18T12:49:36.156Z,26.16
2023-09-18T12:53:47.917Z,25.93
2023-09-18T12:58:00.268Z,25.99
2023-09-18T13:02:15.022Z,25.99
2023-09-18T13:06:27.047Z,25.99
2023-09-18T13:10:53.908Z,25.78
2023-09-18T13:15:10.151Z,25.66
2023-09-18T13:19:22.478Z,25.60
2023-09-18T13:23:34.313Z,25.66
2023-09-18T13:27:46.534Z,25.74
2023-09-18T13:31:58.357Z,25.69
2023-09-18T13:36:10.096Z,25.63
2023-09-18T13:40:23.331Z,25.45
2023-09-18T13:44:36.364Z,25.52
2023-09-18T13:48:48.875Z,25.56
2023-09-18T13:53:03.847Z,25.58
2023-09-18T13:57:15.957Z,25.53
2023-09-18T14:01:28.131Z,25.56
2023-09-18T14:05:40.120Z,25.45
2023-09-18T14:09:51.976Z,25.28
2023-09-18T14:14:03.762Z,25.28
2023-09-18T14:18:15.541Z,25.21
2023-09-18T14:22:27.800Z,25.28
2023-09-18T14:26:42.479Z,25.26
2023-09-18T14:30:54.357Z,25.17
2023-09-18T14:35:09.122Z,25.18
2023-09-18T14:39:21.122Z,24.91
2023-09-18T14:43:32.844Z,24.78
2023-09-18T14:47:44.830Z,24.88
2023-09-18T14:51:56.891Z,24.94
2023-09-18T14:56:08.951Z,24.94
2023-09-18T15:00:26.493Z,24.98
2023-09-18T15:04:38.406Z,24.95
2023-09-18T15:08:50.838Z,24.95
2023-09-18T15:13:02.660Z,24.92
2023-09-18T15:17:14.965Z,24.81
2023-09-18T15:21:26.957Z,24.80
2023-09-18T15:25:39.159Z,24.71
2023-09-18T15:29:51.027Z,24.65
2023-09-18T15:34:05.845Z,24.32
2023-09-18T15:38:17.669Z,23.39
2023-09-18T15:42:29.392Z,22.09
2023-09-18T15:46:41.339Z,21.21
2023-09-18T15:50:53.086Z,20.22
2023-09-18T15:55:07.311Z,19.86
2023-09-18T15:59:19.836Z,19.51
2023-09-18T16:03:31.703Z,19.36
2023-09-18T16:07:46.037Z,19.35
2023-09-18T16:11:57.831Z,19.37
2023-09-18T16:16:09.759Z,19.46
2023-09-18T16:20:22.037Z,19.51
2023-09-18T16:24:33.988Z,19.66
2023-09-18T16:28:48.188Z,19.70
2023-09-18T16:33:02.921Z,19.72
2023-09-18T16:37:16.339Z,19.65
2023-09-18T16:41:29.149Z,19.65
2023-09-18T16:45:43.647Z,19.64
2023-09-18T16:49:55.572Z,19.58
2023-09-18T16:54:07.581Z,19.63
2023-09-18T16:58:19.382Z,19.67
2023-09-18T17:02:31.369Z,19.77
2023-09-18T17:06:43.763Z,19.86
2023-09-18T17:10:55.577Z,19.90
2023-09-18T17:15:09.749Z,20.08
2023-09-18T17:19:21.489Z,20.04
2023-09-18T17:23:33.236Z,19.93
2023-09-18T17:27:45.006Z,19.81
2023-09-18T17:31:56.958Z,19.69
2023-09-18T17:36:12.944Z,19.59
2023-09-18T17:40:24.786Z,19.54
2023-09-18T17:44:36.851Z,19.34
2023-09-18T17:48:48.767Z,19.34
2023-09-18T17:53:00.850Z,19.27
2023-09-18T17:57:12.741Z,19.22
2023-09-18T18:01:24.590Z,19.16
2023-09-18T18:05:36.623Z,19.15
2023-09-18T18:09:48.598Z,19.12
2023-09-18T18:14:00.250Z,19.09
2023-09-18T18:18:14.151Z,19.10
2023-09-18T18:22:26.432Z,19.04
2023-09-18T18:26:38.162Z,19.00
2023-09-18T18:30:53.175Z,18.98
2023-09-18T18:35:05.232Z,18.94
2023-09-18T18:39:17.212Z,18.92
2023-09-18T18:43:30.735Z,18.87
2023-09-18T18:47:43.771Z,18.82
2023-09-18T18:51:56.289Z,18.75
2023-09-18T18:56:08.381Z,18.78
2023-09-18T19:00:20.323Z,18.74
2023-09-18T19:04:32.730Z,18.71
2023-09-18T19:08:45.968Z,18.67
2023-09-18T19:12:58.054Z,18.64
2023-09-18T19:17:09.795Z,18.59
2023-09-18T19:21:21.564Z,18.58
2023-09-18T19:25:33.204Z,18.58
2023-09-18T19:29:47.183Z,18.54
2023-09-18T19:38:17.970Z,18.42
2023-09-18T19:42:29.706Z,18.47
2023-09-18T19:46:41.977Z,18.38
2023-09-18T19:50:58.570Z,18.36
2023-09-18T19:55:10.420Z,18.30
2023-09-18T19:59:22.148Z,18.40
2023-09-18T20:03:34.354Z,18.41
2023-09-18T20:07:46.905Z,18.49
2023-09-18T20:12:00.565Z,18.56
2023-09-18T20:16:12.507Z,18.57
2023-09-18T20:20:27.243Z,18.59
2023-09-18T20:24:39.090Z,18.54
2023-09-18T20:28:50.905Z,18.50
2023-09-18T20:33:04.810Z,18.55
2023-09-18T20:37:20.791Z,18.56
2023-09-18T20:41:33.584Z,18.52
2023-09-18T20:45:46.026Z,18.48
2023-09-18T20:49:57.833Z,18.42
2023-09-18T20:54:11.672Z,18.25
2023-09-18T20:58:23.520Z,18.16
2023-09-18T21:02:35.338Z,17.92
2023-09-18T21:06:50.310Z,17.80
2023-09-18T21:11:02.080Z,17.67
2023-09-18T21:15:14.910Z,17.56
2023-09-18T21:19:26.773Z,17.52
2023-09-18T21:23:39.093Z,17.44
2023-09-18T21:27:51.293Z,17.42
2023-09-18T21:32:04.650Z,17.36
2023-09-18T21:36:25.029Z,17.30
2023-09-18T21:40:36.756Z,17.24
2023-09-18T21:44:48.650Z,17.11
2023-09-18T21:49:00.398Z,17.11
2023-09-18T21:53:12.119Z,17.08
2023-09-18T21:57:23.841Z,17.03
2023-09-18T22:01:36.392Z,16.96
2023-09-18T22:05:48.444Z,17.00
2023-09-18T22:10:00.211Z,16.95
2023-09-18T22:14:13.160Z,16.89
2023-09-18T22:18:25.005Z,16.86
2023-09-18T22:22:37.141Z,16.83
2023-09-18T22:26:48.979Z,16.86
2023-09-18T22:31:00.909Z,16.78
2023-09-18T22:35:12.792Z,16.72
2023-09-18T22:39:33.659Z,16.70
2023-09-18T22:44:27.124Z,16.85
2023-09-18T22:49:17.505Z,16.92
2023-09-18T22:53:29.653Z,16.99
2023-09-18T22:57:54.084Z,16.88
2023-09-18T23:02:06.828Z,16.75
2023-09-18T23:06:18.710Z,16.62
2023-09-18T23:10:30.570Z,16.55
2023-09-18T23:14:42.234Z,16.58
2023-09-18T23:18:53.951Z,16.51
2023-09-18T23:23:05.707Z,16.61
2023-09-18T23:27:17.941Z,16.59
2023-09-18T23:31:31.336Z,16.55
2023-09-18T23:35:44.358Z,16.51
2023-09-18T23:39:59.382Z,16.54
2023-09-18T23:44:15.414Z,16.41
2023-09-18T23:48:27.171Z,16.44
2023-09-18T23:52:39.087Z,16.39
2023-09-18T23:56:52.196Z,16.21
